Acton, TX

7:52 AM CDT on July 04, 2015 (GMT -0500)
Mallard Pointe | | Change Station
CLOSE
Current Station
Personal Weather Station
Location: Granbury, TX
Elevation: 784 ft
Nearby Weather Stations

Elev 784 ft 32.46 °N, 97.75 °W | Updated 1 minute ago

Partly Cloudy
Partly Cloudy
77.5 °F
Feels Like 79 °F
N
0.0
Wind Variable Wind from SE

Today
High -- | Low -- °F
--% Chance of Precip.
Yesterday
High -- | Low -- °F
Precip. -- in
6:28 AM 8:41 PM
Waning Gibbous, 92% visible
Pressure 30.00 in
Visibility 7.0 miles
Clouds Clear
Heat Index 79 °F
Dew Point 71 °F
Humidity 81%
Rainfall 0.00 in
Snow Depth Not available.
UV 1 out of 12
Pollen 3.00 out of 12
Air Quality Not available.
Flu Activity Not available.
METAR KCPT 041235Z AUTO 19005KT 7SM CLR 24/24 A3000 RMK AO2 TSNO

More Conditions Fewer Conditions

Pressure 30.00 in
Visibility 7.0 miles
Clouds Clear
Heat Index 79 °F
Dew Point 71 °F
Humidity 81%
Rainfall 0.00 in
Snow Depth Not available.
UV 1 out of 12
Pollen 3.00 out of 12
Air Quality Not available.
Flu Activity Not available.
METAR KCPT 041235Z AUTO 19005KT 7SM CLR 24/24 A3000 RMK AO2 TSNO

More Conditions Fewer Conditions

Nowcast | as of 7:44 am CDT on July 4, 2015

Early this morning on Independence day...a few isolated showers will be possible over the next several hours....especially along and north of the Interstate 20 corridor. A rumble of thunder or two cannot be ruled out...but severe weather is not anticipated this morning. Rainfall amounts should remain light...with less than one quarter of an inch expected. Precipitation will move to the east at around 15 to 20 mph. Otherwise...mild and humid conditions can be expected with temperatures climbing through the upper 70s and low 80s by 10 am.

×

10-Day Weather Forecast

×

Almanac

Astronomy

Jul. 04, 2015 Rise Set
Actual Time
Civil Twilight
Nautical Twilight
Astronomical Twilight
Moon
Length of Visible Light
Length of Day
Tomorrow will be .
, % of the Moon is Illuminated

Today's Extremes

State Highs State Lows

Community

WunderPhotos

Upload Photos

1,834,948 photos uploaded!

WunderBlogs® & News

Nearby

Air Quality

  Air Quality AQ Index Pollutant
Not available.

Snow Depth

Station Depth Elevation

Earthquake Activity

City Distance Mag. Time & Date
Minimum magnitude displayed is 2.5.

Coastal Water Temperatures

Place Temperature

Stations

Nearby Weather Stations

Station Location Temp. Windchill Dew Point Humidity Wind Precip. Elev Updated Type